Time;durP1;ratioP1;P1;durP2;ratioP2;P2;SDS_P1;SDS_P2;PMS_P1;PMS_P2;Temp;Humidity;BMP_temperature;BMP_pressure;BME280_temperature;BME280_humidity;BME280_pressure;Samples;Min_cycle;Max_cycle;Signal;HPM_P1;HPM_P2
2021/04/22 00:00:21;;;;;;;41.13;23.75;;;;;;;7.07;100.00;97768.75;4980476;28;20560;-82
2021/04/22 00:02:47;;;;;;;44.47;24.00;;;;;;;7.04;100.00;97763.56;4976838;28;20027;-83
2021/04/22 00:05:32;;;;;;;46.17;25.27;;;;;;;6.99;100.00;97767.38;4977045;28;20093;-83
2021/04/22 00:07:59;;;;;;;54.85;26.55;;;;;;;7.01;100.00;97774.34;4965954;28;20037;-83
2021/04/22 00:10:37;;;;;;;37.67;21.23;;;;;;;6.97;100.00;97766.59;4989428;28;20033;-83
2021/04/22 00:13:03;;;;;;;43.50;24.13;;;;;;;6.95;100.00;97779.94;4979223;28;20056;-83
2021/04/22 00:15:29;;;;;;;52.03;24.85;;;;;;;6.92;100.00;97766.78;4995227;28;20026;-84
2021/04/22 00:17:55;;;;;;;43.45;23.58;;;;;;;6.89;100.00;97764.25;4995432;28;20013;-83
2021/04/22 00:20:22;;;;;;;54.15;26.60;;;;;;;6.87;100.00;97750.16;4978878;28;20087;-83
2021/04/22 00:22:48;;;;;;;54.67;28.40;;;;;;;6.87;100.00;97763.47;4979154;28;20026;-83
2021/04/22 00:25:14;;;;;;;58.63;29.55;;;;;;;6.84;100.00;97768.91;4984429;28;20033;-83
2021/04/22 00:27:40;;;;;;;51.90;27.77;;;;;;;6.80;100.00;97769.97;4978656;28;20160;-84
2021/04/22 00:30:08;;;;;;;48.58;26.50;;;;;;;6.74;100.00;97758.72;4978934;28;20120;-83
2021/04/22 00:32:34;;;;;;;49.72;27.05;;;;;;;6.75;100.00;97779.06;4979461;28;20064;-83
2021/04/22 00:35:00;;;;;;;48.10;26.90;;;;;;;6.62;100.00;97768.09;4978876;28;20030;-83
2021/04/22 00:37:25;;;;;;;46.15;25.45;;;;;;;6.64;100.00;97763.59;4994843;28;20057;-83
2021/04/22 00:39:51;;;;;;;55.70;26.80;;;;;;;6.64;100.00;97773.38;4986678;28;20414;-83
2021/04/22 00:42:16;;;;;;;45.40;26.50;;;;;;;6.55;100.00;97766.66;4986699;28;20037;-83
2021/04/22 00:44:48;;;;;;;45.95;25.20;;;;;;;6.57;100.00;97766.56;4982025;28;20033;-80
2021/04/22 00:47:18;;;;;;;44.58;25.15;;;;;;;6.50;100.00;97771.28;4993698;28;20037;-82
2021/04/22 00:49:44;;;;;;;51.88;26.70;;;;;;;6.43;100.00;97764.50;4994797;28;20460;-82
2021/04/22 00:52:10;;;;;;;50.03;26.85;;;;;;;6.44;100.00;97769.75;4978805;28;20040;-82
2021/04/22 00:54:40;;;;;;;52.60;25.77;;;;;;;6.43;100.00;97772.47;4978343;28;20034;-82
2021/04/22 00:57:06;;;;;;;54.53;26.70;;;;;;;6.40;100.00;97767.28;4978724;28;20414;-82
2021/04/22 00:59:32;;;;;;;51.63;27.33;;;;;;;6.35;100.00;97759.53;4978770;28;20034;-83
2021/04/22 01:01:58;;;;;;;63.63;28.65;;;;;;;6.25;100.00;97759.94;4975627;28;20036;-82
2021/04/22 01:04:24;;;;;;;45.88;26.35;;;;;;;6.20;100.00;97762.81;4959266;28;20038;-83
2021/04/22 01:06:50;;;;;;;47.47;24.42;;;;;;;6.18;100.00;97763.81;4962117;28;20022;-82
2021/04/22 01:09:15;;;;;;;46.38;25.38;;;;;;;6.01;100.00;97751.22;5006269;28;20048;-82
2021/04/22 01:11:44;;;;;;;47.42;26.13;;;;;;;6.15;100.00;97764.81;4978121;28;20053;-81
2021/04/22 01:14:09;;;;;;;45.80;25.42;;;;;;;6.07;100.00;97773.97;4978557;28;20575;-82
2021/04/22 01:16:35;;;;;;;46.35;23.38;;;;;;;5.91;100.00;97776.38;4978310;28;20025;-82
2021/04/22 01:19:03;;;;;;;44.42;22.70;;;;;;;5.89;100.00;97760.53;4994634;28;20493;-83
2021/04/22 01:21:29;;;;;;;43.67;21.38;;;;;;;5.86;100.00;97773.94;4978277;28;20413;-83
2021/04/22 01:23:54;;;;;;;42.45;23.15;;;;;;;5.81;100.00;97773.22;4994743;28;20030;-83
2021/04/22 01:26:23;;;;;;;40.75;22.50;;;;;;;5.81;100.00;97775.00;4994209;28;20032;-82
2021/04/22 01:28:49;;;;;;;39.72;21.52;;;;;;;5.75;100.00;97776.09;4977872;28;20113;-82
2021/04/22 01:31:15;;;;;;;39.72;21.42;;;;;;;5.68;100.00;97757.81;4978221;28;20102;-82
2021/04/22 01:33:41;;;;;;;42.28;21.13;;;;;;;5.70;100.00;97766.59;4978126;28;20069;-83
2021/04/22 01:36:07;;;;;;;36.17;20.90;;;;;;;5.76;100.00;97767.22;4978352;28;20105;-83
2021/04/22 01:38:33;;;;;;;34.78;18.80;;;;;;;5.67;100.00;97767.56;4978273;28;20025;-83
2021/04/22 01:41:02;;;;;;;35.35;20.30;;;;;;;5.64;100.00;97762.38;4978005;28;20030;-82
2021/04/22 01:43:28;;;;;;;35.42;18.88;;;;;;;5.63;100.00;97767.78;4978308;28;20042;-83
2021/04/22 01:48:40;;;;;;;35.78;18.25;;;;;;;5.60;100.00;97755.47;5297285;23;20062;-87
2021/04/22 01:51:08;;;;;;;30.88;17.85;;;;;;;5.61;100.00;97758.97;4974887;28;20493;-87
2021/04/22 01:53:34;;;;;;;29.52;16.13;;;;;;;5.57;100.00;97754.75;4960052;28;20030;-87
2021/04/22 01:55:59;;;;;;;26.95;16.10;;;;;;;5.66;100.00;97775.63;4956179;28;20037;-88
2021/04/22 01:58:26;;;;;;;33.38;17.50;;;;;;;5.57;100.00;97771.50;4962091;28;20034;-88
2021/04/22 02:00:57;;;;;;;33.40;16.75;;;;;;;5.45;100.00;97746.31;4962630;28;20018;-87
2021/04/22 02:03:23;;;;;;;31.30;16.55;;;;;;;5.55;100.00;97768.06;4963070;28;20476;-88
2021/04/22 02:05:49;;;;;;;35.90;17.15;;;;;;;5.58;100.00;97767.06;4962907;28;20018;-89
2021/04/22 02:08:16;;;;;;;34.67;17.83;;;;;;;5.57;100.00;97765.34;4961631;28;20038;-88
2021/04/22 02:10:42;;;;;;;31.35;15.90;;;;;;;5.62;100.00;97774.84;4963091;28;20025;-88
2021/04/22 02:13:09;;;;;;;28.40;15.70;;;;;;;5.57;100.00;97766.19;4978543;28;20173;-87
2021/04/22 02:15:36;;;;;;;26.33;14.70;;;;;;;5.58;100.00;97770.59;4979529;28;20417;-88
2021/04/22 02:18:02;;;;;;;22.02;13.13;;;;;;;5.45;100.00;97762.22;4962758;28;20021;-88
2021/04/22 02:20:27;;;;;;;31.60;15.85;;;;;;;5.46;100.00;97768.41;4962275;28;20030;-88
2021/04/22 02:22:54;;;;;;;24.38;13.98;;;;;;;5.29;100.00;97749.63;4962757;28;20037;-88
2021/04/22 02:25:22;;;;;;;26.00;14.25;;;;;;;5.31;100.00;97761.03;4955469;28;20031;-89
2021/04/22 02:27:48;;;;;;;36.35;15.80;;;;;;;5.35;100.00;97765.31;4962743;28;20432;-88
2021/04/22 02:30:21;;;;;;;29.70;14.90;;;;;;;5.30;100.00;97767.25;4954724;28;20035;-87
2021/04/22 02:32:48;;;;;;;25.00;14.55;;;;;;;5.27;100.00;97764.72;4957649;28;20042;-86
2021/04/22 02:35:16;;;;;;;40.58;17.50;;;;;;;5.26;100.00;97765.66;4956281;28;20019;-88
2021/04/22 02:37:42;;;;;;;30.42;16.60;;;;;;;5.18;100.00;97754.44;4962557;28;20022;-87
2021/04/22 02:40:10;;;;;;;29.60;16.27;;;;;;;5.17;100.00;97753.59;4962148;28;20045;-85
2021/04/22 02:42:55;;;;;;;27.67;14.25;;;;;;;5.23;100.00;97755.16;4961955;28;20030;-86
2021/04/22 02:45:25;;;;;;;31.88;14.77;;;;;;;5.22;100.00;97759.59;4946270;28;20034;-86
2021/04/22 02:47:51;;;;;;;27.65;13.55;;;;;;;5.17;100.00;97761.53;4961916;28;20137;-86
2021/04/22 02:50:20;;;;;;;22.58;13.98;;;;;;;5.16;100.00;97758.97;4953981;28;20091;-86
2021/04/22 02:52:45;;;;;;;34.80;15.40;;;;;;;5.18;100.00;97760.63;4965620;28;20030;-87
2021/04/22 02:55:12;;;;;;;29.15;15.32;;;;;;;5.13;100.00;97754.63;4950461;28;20042;-87
2021/04/22 02:57:37;;;;;;;35.83;16.60;;;;;;;5.15;100.00;97759.88;4950470;28;20474;-87
2021/04/22 03:00:06;;;;;;;32.00;17.02;;;;;;;5.12;100.00;97757.31;4950638;28;20019;-85
2021/04/22 03:02:32;;;;;;;37.53;15.60;;;;;;;4.97;100.00;97742.88;4942763;28;20478;-87
2021/04/22 03:04:58;;;;;;;32.65;17.08;;;;;;;5.04;100.00;97756.75;4950827;28;20023;-86
2021/04/22 03:07:23;;;;;;;37.85;18.00;;;;;;;4.99;100.00;97756.91;4950460;28;20037;-87
2021/04/22 03:09:49;;;;;;;33.72;16.10;;;;;;;5.01;100.00;97759.53;4955222;28;20034;-86
2021/04/22 03:12:15;;;;;;;37.70;18.85;;;;;;;5.01;100.00;97754.22;4946525;28;20030;-87
2021/04/22 03:14:40;;;;;;;38.30;19.70;;;;;;;5.02;100.00;97767.41;4961304;28;20038;-86
2021/04/22 03:17:07;;;;;;;31.83;16.88;;;;;;;4.86;100.00;97755.66;4948167;28;20461;-87
2021/04/22 03:19:33;;;;;;;38.33;20.15;;;;;;;4.89;100.00;97769.63;4942305;28;20094;-87
2021/04/22 03:22:00;;;;;;;49.30;23.73;;;;;;;4.92;100.00;97782.78;4949338;28;20069;-87
2021/04/22 03:24:25;;;;;;;46.22;21.00;;;;;;;4.84;100.00;97763.63;4954705;28;20065;-86
2021/04/22 03:26:51;;;;;;;47.35;25.70;;;;;;;4.95;100.00;97788.91;4957773;28;20125;-87
2021/04/22 03:29:17;;;;;;;56.55;27.52;;;;;;;4.97;100.00;97763.19;4944340;28;20042;-86
2021/04/22 03:31:42;;;;;;;62.30;31.98;;;;;;;4.88;100.00;97765.28;4943151;28;20487;-87
2021/04/22 03:34:08;;;;;;;58.90;29.33;;;;;;;5.00;100.00;97787.81;4951754;28;20106;-90
2021/04/22 03:36:33;;;;;;;54.90;26.15;;;;;;;4.97;100.00;97773.78;4961830;28;20516;-87
2021/04/22 03:38:59;;;;;;;49.95;26.42;;;;;;;5.01;100.00;97776.28;4947706;28;20117;-77
2021/04/22 03:41:25;;;;;;;51.38;25.05;;;;;;;5.05;100.00;97784.97;4955844;28;20074;-76
2021/04/22 03:43:50;;;;;;;46.40;24.08;;;;;;;5.05;100.00;97792.94;4955074;28;20057;-75
2021/04/22 03:46:16;;;;;;;49.40;24.00;;;;;;;5.02;100.00;97796.56;4988149;28;20026;-74
2021/04/22 03:48:41;;;;;;;52.38;25.50;;;;;;;5.06;100.00;97792.00;4973026;28;22356;-75
2021/04/22 03:51:07;;;;;;;40.97;22.15;;;;;;;5.05;100.00;97792.94;4973516;28;20096;-74
2021/04/22 03:53:32;;;;;;;62.17;24.60;;;;;;;5.08;100.00;97798.13;4973291;28;20054;-74
2021/04/22 03:55:58;;;;;;;51.60;22.75;;;;;;;5.06;100.00;97816.75;4964973;28;20513;-74
2021/04/22 03:58:23;;;;;;;71.88;25.70;;;;;;;4.99;100.00;97815.22;4959418;28;20027;-76
2021/04/22 04:00:49;;;;;;;51.05;22.23;;;;;;;5.00;100.00;97808.16;4956221;28;20061;-74
2021/04/22 04:03:14;;;;;;;61.85;26.05;;;;;;;5.03;100.00;97821.28;4972247;28;20030;-75
2021/04/22 04:05:40;;;;;;;67.15;26.27;;;;;;;4.99;100.00;97814.34;4958943;28;20030;-76
2021/04/22 04:08:06;;;;;;;34.55;16.98;;;;;;;5.05;100.00;97811.47;4969419;28;20030;-75
2021/04/22 04:10:31;;;;;;;42.70;18.40;;;;;;;5.11;100.00;97824.50;4947478;29;20031;-75
2021/04/22 04:12:57;;;;;;;34.05;18.15;;;;;;;5.20;100.00;97834.81;4953518;28;20042;-75
2021/04/22 04:15:24;;;;;;;41.28;20.02;;;;;;;5.25;100.00;97832.84;4967907;28;20035;-75
2021/04/22 04:17:50;;;;;;;57.30;20.42;;;;;;;5.31;100.00;97822.03;4953898;28;20454;-75
2021/04/22 04:20:16;;;;;;;43.50;22.42;;;;;;;5.53;100.00;97833.56;4955795;28;20035;-74
2021/04/22 04:22:42;;;;;;;37.22;19.92;;;;;;;6.06;100.00;97839.50;4961052;28;20031;-75
2021/04/22 04:25:09;;;;;;;50.85;23.52;;;;;;;6.37;98.66;97823.19;4962946;28;20403;-75
2021/04/22 04:27:35;;;;;;;55.28;26.58;;;;;;;6.36;97.83;97837.44;4970869;28;20375;-75
2021/04/22 04:30:01;;;;;;;56.30;25.85;;;;;;;6.22;97.53;97829.13;4963617;28;20055;-75
2021/04/22 04:32:26;;;;;;;63.25;30.25;;;;;;;6.18;97.88;97843.47;4957370;28;20419;-75
2021/04/22 04:34:52;;;;;;;54.50;26.27;;;;;;;6.23;99.02;97846.81;4966358;28;20038;-75
2021/04/22 04:37:18;;;;;;;51.83;28.40;;;;;;;6.31;97.67;97834.06;4969960;28;20026;-75
2021/04/22 04:39:43;;;;;;;53.15;25.08;;;;;;;6.44;96.51;97832.66;4960139;28;20114;-75
2021/04/22 04:42:09;;;;;;;63.28;25.80;;;;;;;6.58;95.54;97840.06;4955499;28;20436;-75
2021/04/22 04:44:35;;;;;;;62.65;26.88;;;;;;;6.69;95.09;97835.16;4955646;28;20499;-75
2021/04/22 04:47:01;;;;;;;66.80;29.50;;;;;;;6.78;94.40;97835.63;4963319;28;20023;-75
2021/04/22 04:49:26;;;;;;;77.90;36.40;;;;;;;6.99;93.89;97855.13;4948333;28;20571;-75
2021/04/22 04:51:52;;;;;;;55.75;29.63;;;;;;;7.11;93.32;97848.44;4969906;28;20027;-75
2021/04/22 04:54:17;;;;;;;67.40;29.00;;;;;;;7.27;93.32;97854.78;4936708;28;20031;-76
2021/04/22 04:56:43;;;;;;;66.93;28.75;;;;;;;7.46;92.96;97850.41;4940882;29;20465;-75
2021/04/22 04:59:08;;;;;;;66.45;26.60;;;;;;;8.01;91.60;97854.06;4951920;28;20034;-75
2021/04/22 05:01:34;;;;;;;39.03;20.88;;;;;;;8.70;85.79;97857.84;4947170;28;20117;-75
2021/04/22 05:03:59;;;;;;;37.17;21.95;;;;;;;9.57;80.44;97854.19;4923202;28;20422;-75
2021/04/22 05:06:25;;;;;;;39.90;21.58;;;;;;;10.34;76.67;97864.22;4951593;29;20059;-75
2021/04/22 05:08:51;;;;;;;54.22;23.52;;;;;;;11.00;74.21;97852.41;4935571;29;20086;-75
2021/04/22 05:11:16;;;;;;;43.15;23.48;;;;;;;11.73;70.53;97851.53;4944327;28;20031;-91
2021/04/22 05:13:42;;;;;;;48.67;22.73;;;;;;;12.97;66.08;97841.66;4931261;28;20077;-90
2021/04/22 05:16:07;;;;;;;49.65;20.73;;;;;;;14.41;59.48;97868.38;4930041;28;20064;-87
2021/04/22 05:18:33;;;;;;;50.63;21.10;;;;;;;15.79;54.43;97863.34;4928291;28;20105;-87
2021/04/22 05:20:59;;;;;;;54.72;23.75;;;;;;;16.78;50.46;97860.69;4936010;28;20035;-86
2021/04/22 05:23:24;;;;;;;57.33;24.90;;;;;;;17.71;47.67;97871.81;4936812;28;20114;-83
2021/04/22 05:25:53;;;;;;;47.97;22.73;;;;;;;18.24;45.32;97876.16;4949740;28;20031;-82
2021/04/22 05:28:19;;;;;;;62.13;33.00;;;;;;;18.91;44.11;97879.19;4925886;28;20027;-85
2021/04/22 05:30:45;;;;;;;55.55;30.83;;;;;;;19.63;43.54;97878.00;4933313;28;20372;-85
2021/04/22 05:33:11;;;;;;;72.85;30.55;;;;;;;21.08;41.00;97886.53;4933154;28;20046;-86
2021/04/22 05:35:37;;;;;;;61.80;32.70;;;;;;;21.85;37.96;97894.13;4939671;28;20030;-86
2021/04/22 05:38:03;;;;;;;50.85;27.00;;;;;;;20.65;39.94;97890.84;4937232;28;20019;-87
2021/04/22 05:40:29;;;;;;;50.25;29.40;;;;;;;21.27;39.18;97893.72;4940445;29;20047;-88
2021/04/22 05:42:58;;;;;;;48.90;28.58;;;;;;;22.80;37.00;97905.09;4941844;28;20511;-87
2021/04/22 05:45:24;;;;;;;61.15;30.58;;;;;;;23.61;34.98;97894.50;4931589;28;20037;-87
2021/04/22 05:47:50;;;;;;;62.15;30.98;;;;;;;24.31;33.41;97903.97;4928768;29;20043;-87
2021/04/22 05:50:17;;;;;;;56.42;30.58;;;;;;;23.84;33.57;97906.47;4930751;29;20042;-87
2021/04/22 05:52:43;;;;;;;61.28;34.38;;;;;;;23.00;34.84;97895.66;4919868;29;20024;-79
2021/04/22 05:55:09;;;;;;;62.95;34.47;;;;;;;22.95;35.28;97911.63;4919612;29;20508;-75
2021/04/22 05:57:35;;;;;;;62.08;34.30;;;;;;;24.13;33.20;97906.88;4938065;29;20016;-75
2021/04/22 06:00:03;;;;;;;80.28;35.60;;;;;;;25.46;31.27;97895.25;4936936;29;20493;-75
2021/04/22 06:02:29;;;;;;;69.22;43.90;;;;;;;26.30;30.16;97898.81;4908336;29;20034;-88
2021/04/22 06:04:54;;;;;;;69.00;40.83;;;;;;;26.61;29.88;97898.69;4915947;29;20479;-88
2021/04/22 06:07:20;;;;;;;56.17;36.03;;;;;;;26.84;28.54;97895.91;4909365;29;20499;-87
2021/04/22 06:09:45;;;;;;;54.03;35.50;;;;;;;27.58;28.24;97899.47;4923740;29;20053;-87
2021/04/22 06:12:11;;;;;;;65.05;36.20;;;;;;;28.17;27.45;97879.00;4913684;29;20471;-89
2021/04/22 06:14:37;;;;;;;62.35;40.40;;;;;;;27.61;27.08;97886.22;4913434;29;20098;-90
2021/04/22 06:17:03;;;;;;;64.05;42.60;;;;;;;26.59;29.58;97889.81;4920444;29;20028;-89
2021/04/22 06:19:28;;;;;;;90.70;44.78;;;;;;;27.02;29.23;97904.63;4924418;29;20509;-87
2021/04/22 06:21:54;;;;;;;52.13;38.63;;;;;;;28.40;27.34;97887.88;4916759;29;20027;-89
2021/04/22 06:24:19;;;;;;;29.92;18.77;;;;;;;28.09;25.80;97895.63;4927759;29;20120;-89
2021/04/22 06:26:48;;;;;;;33.85;19.13;;;;;;;26.01;28.97;97865.78;4925112;29;20110;-89
2021/04/22 06:29:14;;;;;;;26.25;16.25;;;;;;;26.92;27.94;97895.81;4918278;29;20031;-87
2021/04/22 06:31:40;;;;;;;37.67;13.82;;;;;;;27.96;26.67;97895.50;4924438;29;20202;-84
2021/04/22 06:34:05;;;;;;;27.27;16.55;;;;;;;26.84;27.45;97890.44;4916183;29;20102;-81
2021/04/22 06:36:31;;;;;;;24.85;11.00;;;;;;;26.54;27.61;97892.25;4921647;29;20039;-75
2021/04/22 06:38:57;;;;;;;28.02;11.43;;;;;;;27.28;28.60;97890.41;4937239;29;20019;-74
2021/04/22 06:41:24;;;;;;;13.90;7.50;;;;;;;28.14;24.61;97884.06;4949284;28;20031;-75
2021/04/22 06:43:49;;;;;;;15.70;9.05;;;;;;;26.85;25.48;97870.19;4941279;29;20059;-75
2021/04/22 06:46:15;;;;;;;18.50;7.90;;;;;;;27.97;25.75;97876.03;4936917;29;20462;-74
2021/04/22 06:48:41;;;;;;;17.88;8.77;;;;;;;28.91;24.03;97868.38;4938503;28;20069;-74
2021/04/22 06:51:08;;;;;;;14.40;6.60;;;;;;;29.32;25.55;97883.06;4956049;28;20054;-74
2021/04/22 06:53:35;;;;;;;10.10;6.13;;;;;;;29.19;23.71;97877.47;4964208;28;20038;-74
2021/04/22 06:56:00;;;;;;;12.52;6.38;;;;;;;30.57;21.68;97861.31;4956291;28;20037;-75
2021/04/22 06:58:26;;;;;;;11.20;5.97;;;;;;;31.09;21.42;97865.94;4960228;28;20401;-75
2021/04/22 07:00:51;;;;;;;20.45;6.25;;;;;;;31.60;20.62;97875.13;4972778;28;20117;-88
2021/04/22 07:03:19;;;;;;;19.23;7.03;;;;;;;32.76;20.57;97874.81;4955243;28;20118;-89
2021/04/22 07:05:44;;;;;;;24.80;7.10;;;;;;;32.57;19.99;97869.22;4952151;28;20191;-88
2021/04/22 07:08:10;;;;;;;19.95;7.60;;;;;;;31.56;20.03;97860.03;4942199;28;20153;-88
2021/04/22 07:10:37;;;;;;;9.52;7.05;;;;;;;32.27;19.04;97848.75;4958292;28;20038;-89
2021/04/22 07:13:03;;;;;;;28.02;10.50;;;;;;;33.39;18.91;97856.88;4942669;28;20038;-90
2021/04/22 07:15:28;;;;;;;14.23;7.18;;;;;;;33.93;17.86;97849.56;4954724;28;20046;-88
2021/04/22 07:17:54;;;;;;;17.25;6.80;;;;;;;34.35;18.00;97859.63;4957337;28;20449;-88
2021/04/22 07:20:22;;;;;;;13.98;7.90;;;;;;;35.05;17.53;97848.59;4941781;28;20038;-87
2021/04/22 07:22:48;;;;;;;12.32;7.07;;;;;;;34.58;17.51;97848.53;4941284;28;20038;-87
2021/04/22 07:25:14;;;;;;;35.65;14.80;;;;;;;34.39;18.14;97852.53;4941780;28;20038;-87
2021/04/22 07:27:40;;;;;;;13.18;7.70;;;;;;;33.18;18.24;97858.19;4941337;28;20031;-89
2021/04/22 07:30:07;;;;;;;9.45;6.53;;;;;;;33.02;17.99;97860.69;4940992;28;20478;-86
2021/04/22 07:32:33;;;;;;;11.40;4.18;;;;;;;33.43;17.01;97838.69;4940569;28;20038;-86
2021/04/22 07:34:59;;;;;;;8.20;3.58;;;;;;;33.66;17.10;97849.94;4940718;28;20485;-88
2021/04/22 07:37:25;;;;;;;12.27;8.73;;;;;;;33.99;16.73;97851.41;4947186;28;20037;-88
2021/04/22 07:39:51;;;;;;;4.53;3.50;;;;;;;34.15;16.15;97845.19;4941230;28;20409;-88
2021/04/22 07:42:17;;;;;;;5.28;3.17;;;;;;;34.58;15.73;97825.50;4946548;28;20494;-88
2021/04/22 07:44:46;;;;;;;7.13;3.28;;;;;;;33.98;16.62;97808.06;4941020;28;20126;-88
2021/04/22 07:47:13;;;;;;;8.40;3.75;;;;;;;34.48;15.89;97839.13;4947291;28;20064;-85
2021/04/22 07:49:38;;;;;;;10.25;3.75;;;;;;;33.96;16.69;97838.84;4943138;29;20055;-85
2021/04/22 07:52:04;;;;;;;5.05;3.00;;;;;;;33.52;17.71;97833.66;4925387;28;20031;-86
2021/04/22 07:54:30;;;;;;;16.75;3.20;;;;;;;32.78;16.42;97833.84;4970172;28;20505;-85
2021/04/22 07:57:12;;;;;;;7.45;3.30;;;;;;;34.08;16.04;97830.56;4952391;28;20081;-87
2021/04/22 07:59:37;;;;;;;7.47;3.65;;;;;;;34.54;15.60;97839.00;4946116;28;20049;-87
2021/04/22 08:02:06;;;;;;;3.97;2.78;;;;;;;31.33;16.58;97829.25;4955831;28;20460;-86
2021/04/22 08:04:32;;;;;;;5.10;2.40;;;;;;;29.40;18.26;97830.50;4946362;29;20098;-85
2021/04/22 08:06:57;;;;;;;20.83;6.93;;;;;;;28.45;19.35;97829.50;4966879;28;20027;-86
2021/04/22 08:09:43;;;;;;;10.77;3.75;;;;;;;28.02;20.46;97842.44;4942842;28;20054;-86
2021/04/22 08:12:09;;;;;;;13.60;3.97;;;;;;;29.23;20.05;97837.38;4938542;28;20049;-86
2021/04/22 08:14:35;;;;;;;12.90;4.05;;;;;;;30.84;18.29;97845.53;4956881;28;20031;-87
2021/04/22 08:17:00;;;;;;;13.25;3.20;;;;;;;30.21;18.22;97813.94;4932746;28;20069;-88
2021/04/22 08:19:26;;;;;;;7.18;2.58;;;;;;;30.12;18.05;97824.31;4940910;28;20061;-86
2021/04/22 08:21:52;;;;;;;4.10;2.95;;;;;;;29.22;19.72;97830.19;4942004;28;20018;-87
2021/04/22 08:24:18;;;;;;;12.30;2.90;;;;;;;29.74;19.53;97835.06;4972163;28;20058;-86
2021/04/22 08:26:44;;;;;;;5.18;2.90;;;;;;;29.25;18.55;97824.31;4940136;28;20434;-85
2021/04/22 08:29:11;;;;;;;13.55;3.58;;;;;;;28.98;18.97;97836.19;4973180;28;20031;-89
2021/04/22 08:31:37;;;;;;;6.63;3.10;;;;;;;29.12;18.55;97840.75;4944319;28;20474;-78
2021/04/22 08:34:07;;;;;;;24.90;3.30;;;;;;;28.83;18.35;97829.97;4955340;28;20030;-75
2021/04/22 08:36:33;;;;;;;5.10;2.80;;;;;;;28.85;19.37;97831.50;4939771;28;20089;-75
2021/04/22 08:39:00;;;;;;;7.38;2.10;;;;;;;28.02;19.92;97827.81;4954564;28;20490;-75
2021/04/22 08:41:26;;;;;;;5.10;2.45;;;;;;;27.92;19.87;97836.41;4939241;28;20053;-76
2021/04/22 08:43:52;;;;;;;3.72;2.17;;;;;;;29.15;18.47;97837.56;4952134;28;20038;-77
2021/04/22 08:46:18;;;;;;;6.63;3.03;;;;;;;29.14;19.56;97833.09;4935270;29;20035;-76
2021/04/22 08:48:44;;;;;;;3.38;2.50;;;;;;;28.92;20.30;97843.38;4951274;29;20480;-75
2021/04/22 08:51:12;;;;;;;3.42;2.67;;;;;;;29.84;18.86;97837.47;4938028;28;20117;-76
2021/04/22 08:53:40;;;;;;;6.97;3.13;;;;;;;30.61;18.71;97846.84;4967788;28;20027;-75
2021/04/22 08:56:07;;;;;;;5.53;2.70;;;;;;;30.63;18.69;97838.34;4958882;28;20042;-75
2021/04/22 08:58:32;;;;;;;8.57;4.47;;;;;;;29.53;19.00;97821.44;4948145;28;20030;-75
2021/04/22 09:01:11;;;;;;;9.80;6.05;;;;;;;31.43;17.66;97824.13;4961128;28;20529;-75
2021/04/22 09:03:37;;;;;;;4.40;2.78;;;;;;;32.16;16.70;97810.72;4935634;28;20061;-76
2021/04/22 09:06:03;;;;;;;5.18;2.70;;;;;;;32.15;17.65;97812.63;4937906;28;20062;-75
2021/04/22 09:08:37;;;;;;;10.40;2.85;;;;;;;32.39;17.04;97812.88;4935701;28;20110;-76
2021/04/22 09:11:04;;;;;;;7.22;2.45;;;;;;;30.58;17.88;97804.97;4949621;28;20105;-76
2021/04/22 09:13:30;;;;;;;8.98;2.60;;;;;;;31.42;16.53;97805.81;4951008;28;20120;-78
2021/04/22 09:16:07;;;;;;;3.40;2.22;;;;;;;30.52;17.06;97803.94;4955017;28;20043;-77
2021/04/22 09:18:38;;;;;;;10.43;3.25;;;;;;;31.19;17.68;97799.97;4938432;28;20031;-76
2021/04/22 09:21:04;;;;;;;14.38;2.85;;;;;;;29.78;17.78;97794.13;4957643;28;20519;-75
2021/04/22 09:23:30;;;;;;;2.92;2.60;;;;;;;28.31;19.15;97801.00;4961961;28;20074;-75
2021/04/22 09:26:07;;;;;;;5.65;2.40;;;;;;;27.63;19.74;97784.28;4948168;28;20057;-76
2021/04/22 09:28:36;;;;;;;4.63;2.70;;;;;;;28.31;19.04;97786.38;4936707;28;20587;-76
2021/04/22 09:31:02;;;;;;;15.77;4.20;;;;;;;30.30;18.61;97802.44;4969598;28;20031;-76
2021/04/22 09:33:30;;;;;;;5.95;2.50;;;;;;;31.33;16.63;97792.44;4952265;28;20034;-76
2021/04/22 09:36:10;;;;;;;10.40;2.90;;;;;;;32.45;15.94;97790.66;4952138;28;20510;-76
2021/04/22 09:38:38;;;;;;;5.60;2.75;;;;;;;32.42;14.96;97784.72;4959395;28;20030;-73
2021/04/22 09:41:24;;;;;;;15.98;2.88;;;;;;;30.06;16.96;97783.75;4952145;28;20023;-74
2021/04/22 09:44:03;;;;;;;29.35;21.20;;;;;;;31.26;14.94;97775.03;4969419;28;20035;-74
2021/04/22 09:46:29;;;;;;;12.77;5.10;;;;;;;33.05;14.26;97779.81;4951437;28;20034;-74
2021/04/22 09:48:57;;;;;;;4.03;3.05;;;;;;;31.46;15.16;97757.28;4951972;28;20089;-75
2021/04/22 09:51:31;;;;;;;5.75;2.80;;;;;;;31.17;15.07;97752.31;4943466;29;20046;-75
2021/04/22 09:54:15;;;;;;;3.30;2.42;;;;;;;31.97;15.17;97759.06;4948889;28;20035;-75
2021/04/22 09:56:53;;;;;;;3.42;2.72;;;;;;;33.85;15.24;97759.13;4951843;28;20051;-75
2021/04/22 09:59:27;;;;;;;3.80;2.38;;;;;;;35.62;13.60;97749.41;4925674;29;20093;-75
2021/04/22 10:02:02;;;;;;;3.55;2.90;;;;;;;35.95;14.33;97751.41;4949415;28;20035;-75
2021/04/22 10:04:36;;;;;;;7.70;2.85;;;;;;;34.63;13.08;97720.00;4943639;28;20027;-76
2021/04/22 10:07:06;;;;;;;6.85;3.33;;;;;;;32.65;13.38;97719.28;4969276;28;20489;-77
2021/04/22 10:09:36;;;;;;;9.18;5.72;;;;;;;30.88;14.72;97722.47;4915018;28;20470;-76
2021/04/22 10:12:03;;;;;;;13.90;2.60;;;;;;;30.84;15.49;97719.28;4952192;28;20030;-75
2021/04/22 10:14:36;;;;;;;2.78;2.47;;;;;;;30.39;16.36;97731.31;4936385;28;20031;-76
2021/04/22 10:17:16;;;;;;;5.15;2.60;;;;;;;30.52;15.79;97729.38;4925493;28;20149;-76
2021/04/22 10:19:43;;;;;;;2.53;2.25;;;;;;;30.82;14.34;97718.66;4953070;28;20437;-75
2021/04/22 10:22:09;;;;;;;3.67;2.20;;;;;;;30.79;15.20;97721.88;4942037;28;20144;-76
2021/04/22 10:24:34;;;;;;;8.68;2.47;;;;;;;30.73;15.04;97721.88;4930279;28;20024;-76
2021/04/22 10:27:02;;;;;;;2.90;2.60;;;;;;;31.41;13.97;97710.06;4953710;29;20030;-76
2021/04/22 10:29:28;;;;;;;2.80;2.42;;;;;;;31.77;13.59;97705.81;4952213;29;20031;-76
2021/04/22 10:31:55;;;;;;;8.35;2.40;;;;;;;32.03;14.23;97705.59;4936337;29;20039;-76
2021/04/22 10:34:21;;;;;;;6.43;2.70;;;;;;;31.49;14.07;97701.56;4955369;28;20135;-76
2021/04/22 10:36:47;;;;;;;2.03;1.90;;;;;;;29.53;14.39;97686.31;4954862;28;20490;-76
2021/04/22 10:39:13;;;;;;;3.83;2.13;;;;;;;29.68;14.98;97686.09;4939050;28;20042;-75
2021/04/22 10:41:39;;;;;;;10.43;2.28;;;;;;;29.06;17.02;97692.75;4946089;28;20466;-75
2021/04/22 10:44:05;;;;;;;4.28;2.40;;;;;;;30.16;14.57;97687.56;4920025;29;20101;-76
2021/04/22 10:46:35;;;;;;;2.67;2.25;;;;;;;30.38;14.45;97694.53;4928426;28;20066;-75
2021/04/22 10:49:01;;;;;;;5.43;2.55;;;;;;;31.21;16.18;97697.44;4938452;29;20044;-76
2021/04/22 10:51:27;;;;;;;6.88;2.63;;;;;;;29.44;15.43;97690.34;4962029;28;20462;-76
2021/04/22 10:53:53;;;;;;;5.40;4.50;;;;;;;28.84;17.02;97691.19;4966713;28;20536;-76
2021/04/22 10:56:29;;;;;;;3.08;2.35;;;;;;;26.64;17.89;97677.91;4941722;28;20077;-75
2021/04/22 10:58:54;;;;;;;4.78;2.50;;;;;;;26.00;19.24;97674.00;4938488;28;20722;-75
2021/04/22 11:01:31;;;;;;;13.70;3.20;;;;;;;25.79;19.37;97685.72;4924741;29;20094;-76
2021/04/22 11:04:03;;;;;;;3.53;2.40;;;;;;;27.64;17.95;97687.00;4946226;28;20042;-76
2021/04/22 11:06:33;;;;;;;4.93;2.15;;;;;;;28.45;16.76;97667.94;4954916;28;20659;-75
2021/04/22 11:09:22;;;;;;;2.72;2.50;;;;;;;28.56;16.40;97668.38;4946208;28;20031;-74
2021/04/22 11:11:57;;;;;;;2.67;2.15;;;;;;;29.49;15.94;97652.78;4971335;28;20056;-76
2021/04/22 11:14:33;;;;;;;4.60;2.45;;;;;;;31.98;13.98;97655.59;4946030;28;20062;-75
2021/04/22 11:16:59;;;;;;;4.22;2.70;;;;;;;31.01;14.35;97642.28;4970414;28;20517;-75
2021/04/22 11:19:39;;;;;;;3.05;2.20;;;;;;;28.86;16.44;97639.50;4938083;28;20058;-76
2021/04/22 11:22:25;;;;;;;5.70;2.50;;;;;;;29.77;15.32;97637.94;4946288;28;20038;-75
2021/04/22 11:25:01;;;;;;;3.25;2.38;;;;;;;29.99;14.42;97634.72;4930302;28;20486;-75
2021/04/22 11:27:30;;;;;;;3.42;2.33;;;;;;;30.06;14.05;97615.41;4931420;29;20630;-76